Time;durP1;ratioP1;P1;durP2;ratioP2;P2;SDS_P1;SDS_P2;PMS_P1;PMS_P2;Temp;Humidity;BMP_temperature;BMP_pressure;BME280_temperature;BME280_humidity;BME280_pressure;Samples;Min_cycle;Max_cycle;Signal;HPM_P1;HPM_P2
2022/12/09 00:01:20;;;;;;;4.90;4.60;;;3.10;99.90;;;;;;5044672;28;20226;-74
2022/12/09 00:03:47;;;;;;;5.80;5.30;;;3.00;99.90;;;;;;5042478;28;20207;-73
2022/12/09 00:06:18;;;;;;;5.68;5.18;;;2.80;99.90;;;;;;5034934;28;20879;-76
2022/12/09 00:08:46;;;;;;;5.55;5.05;;;2.60;99.90;;;;;;5041065;28;20238;-76
2022/12/09 00:11:13;;;;;;;5.40;4.93;;;2.60;99.90;;;;;;5040111;28;20223;-75
2022/12/09 00:13:41;;;;;;;4.78;4.40;;;2.70;99.90;;;;;;5042083;28;20200;-77
2022/12/09 00:16:11;;;;;;;5.80;5.30;;;2.80;99.90;;;;;;5043352;28;20661;-73
2022/12/09 00:18:41;;;;;;;6.18;5.57;;;2.70;99.90;;;;;;5042299;28;20223;-76
2022/12/09 00:21:18;;;;;;;6.18;5.68;;;2.60;99.90;;;;;;5043331;28;20222;-75
2022/12/09 00:23:46;;;;;;;5.85;5.35;;;2.50;99.90;;;;;;5042983;28;20196;-74
2022/12/09 00:26:13;;;;;;;5.95;5.45;;;2.50;99.90;;;;;;5045111;28;20218;-74
2022/12/09 00:28:41;;;;;;;5.55;5.10;;;2.50;99.90;;;;;;5041492;28;20269;-76
2022/12/09 00:31:11;;;;;;;5.47;5.05;;;2.50;99.90;;;;;;5050363;28;20222;-73
2022/12/09 00:33:38;;;;;;;5.70;5.25;;;2.40;99.90;;;;;;5047736;28;20202;-74
2022/12/09 00:36:11;;;;;;;5.65;5.25;;;2.50;99.90;;;;;;5045130;28;20607;-73
2022/12/09 00:38:39;;;;;;;5.47;5.07;;;2.60;99.90;;;;;;5044963;28;20229;-73
2022/12/09 00:41:07;;;;;;;5.40;4.93;;;2.60;99.90;;;;;;5045191;28;20222;-72
2022/12/09 00:43:34;;;;;;;4.97;4.47;;;2.70;99.90;;;;;;5045715;28;20207;-75
2022/12/09 00:46:02;;;;;;;5.22;4.82;;;2.80;99.90;;;;;;5047076;28;20241;-74
2022/12/09 00:48:30;;;;;;;5.05;4.55;;;2.80;99.90;;;;;;5045641;28;20204;-74
2022/12/09 00:50:58;;;;;;;5.22;4.82;;;2.80;99.90;;;;;;5048192;28;20234;-76
2022/12/09 00:53:27;;;;;;;4.60;4.30;;;2.90;99.90;;;;;;5050096;28;20206;-76
2022/12/09 00:55:54;;;;;;;4.40;4.10;;;2.90;99.90;;;;;;5042729;28;20234;-74
2022/12/09 00:58:21;;;;;;;4.82;4.50;;;3.00;99.90;;;;;;5044101;28;20195;-78
2022/12/09 01:00:52;;;;;;;5.15;4.70;;;3.00;99.90;;;;;;5045735;28;20759;-74
2022/12/09 01:03:19;;;;;;;4.78;4.38;;;3.00;99.90;;;;;;5043734;28;20669;-74
2022/12/09 01:05:47;;;;;;;4.43;4.13;;;3.00;99.90;;;;;;5045469;28;20222;-77
2022/12/09 01:08:16;;;;;;;4.30;4.00;;;3.00;99.90;;;;;;5045520;28;20191;-76
2022/12/09 01:10:45;;;;;;;5.00;4.50;;;3.00;99.90;;;;;;5045798;28;20230;-76
2022/12/09 01:13:15;;;;;;;4.53;4.22;;;3.10;99.90;;;;;;5045338;28;20664;-75
2022/12/09 01:15:43;;;;;;;3.97;3.70;;;3.10;99.90;;;;;;5043617;28;20577;-78
2022/12/09 01:18:11;;;;;;;4.35;4.05;;;3.10;99.90;;;;;;5046878;28;20203;-74
2022/12/09 01:20:39;;;;;;;3.83;3.58;;;3.10;99.90;;;;;;5042627;28;20246;-75
2022/12/09 01:23:06;;;;;;;4.18;3.88;;;3.10;99.90;;;;;;5042525;28;20199;-76
2022/12/09 01:25:36;;;;;;;4.07;3.75;;;3.00;99.90;;;;;;5045353;28;20215;-75
2022/12/09 01:28:05;;;;;;;4.57;4.28;;;3.00;99.90;;;;;;5043245;28;20207;-74
2022/12/09 01:30:33;;;;;;;5.03;4.63;;;3.00;99.90;;;;;;5039316;28;20801;-74
2022/12/09 01:33:00;;;;;;;5.03;4.60;;;3.00;99.90;;;;;;5045273;28;20581;-76
2022/12/09 01:35:27;;;;;;;5.15;4.72;;;2.90;99.90;;;;;;5045195;28;20202;-75
2022/12/09 01:37:55;;;;;;;4.82;4.43;;;2.80;99.90;;;;;;5047033;28;20207;-73
2022/12/09 01:40:22;;;;;;;5.38;4.80;;;2.80;99.90;;;;;;5042562;28;20219;-76
2022/12/09 01:42:50;;;;;;;5.45;4.95;;;2.70;99.90;;;;;;5047806;28;20648;-75
2022/12/09 01:45:46;;;;;;;5.47;5.07;;;2.60;99.90;;;;;;5046899;28;20205;-74
2022/12/09 01:48:15;;;;;;;5.20;4.80;;;2.50;99.90;;;;;;5041029;28;20219;-74
2022/12/09 01:50:46;;;;;;;5.40;5.00;;;2.50;99.90;;;;;;5042978;28;20218;-76
2022/12/09 01:53:15;;;;;;;5.75;5.28;;;2.50;99.90;;;;;;5046166;28;20249;-74
2022/12/09 01:55:44;;;;;;;5.72;5.25;;;2.50;99.90;;;;;;5040366;28;20256;-80
2022/12/09 01:58:12;;;;;;;5.18;4.78;;;2.40;99.90;;;;;;5041307;28;20650;-74
2022/12/09 02:00:39;;;;;;;5.55;5.05;;;2.40;99.90;;;;;;5043719;28;20218;-78
2022/12/09 02:03:09;;;;;;;5.30;4.80;;;2.40;99.90;;;;;;5035904;28;20195;-77
2022/12/09 02:05:37;;;;;;;5.57;5.15;;;2.50;99.90;;;;;;5039213;28;20215;-76
2022/12/09 02:08:10;;;;;;;5.35;4.95;;;2.60;99.90;;;;;;5043619;28;20203;-75
2022/12/09 02:10:45;;;;;;;5.18;4.72;;;2.60;99.90;;;;;;5044284;28;20199;-74
2022/12/09 02:13:22;;;;;;;5.78;5.28;;;2.60;99.90;;;;;;5045409;28;20201;-74
2022/12/09 02:15:53;;;;;;;4.90;4.50;;;2.60;99.90;;;;;;5037464;28;20233;-72
2022/12/09 02:18:27;;;;;;;5.07;4.63;;;2.60;99.90;;;;;;5047562;28;20912;-73
2022/12/09 02:21:01;;;;;;;5.40;4.90;;;2.60;99.90;;;;;;5045390;28;20229;-78
2022/12/09 02:23:34;;;;;;;4.97;4.60;;;2.60;99.90;;;;;;5047193;28;20200;-73
2022/12/09 02:26:11;;;;;;;6.25;4.57;;;2.50;99.90;;;;;;5040738;28;20215;-73
2022/12/09 02:29:02;;;;;;;5.05;4.70;;;2.50;99.90;;;;;;5038376;28;20218;-76
2022/12/09 02:32:00;;;;;;;5.45;4.95;;;2.40;99.90;;;;;;5042212;28;20215;-76
2022/12/09 02:34:33;;;;;;;5.45;5.03;;;2.40;99.90;;;;;;5042394;28;20621;-77
2022/12/09 02:37:08;;;;;;;5.07;4.65;;;2.40;99.90;;;;;;5038598;28;20227;-75
2022/12/09 02:39:40;;;;;;;5.18;4.78;;;2.50;99.90;;;;;;5039879;28;20215;-75
2022/12/09 02:42:09;;;;;;;5.13;4.63;;;2.50;99.90;;;;;;5041720;28;20225;-74
2022/12/09 02:44:38;;;;;;;4.88;4.57;;;2.50;99.90;;;;;;5038064;28;20210;-74
2022/12/09 02:47:08;;;;;;;5.20;4.80;;;2.50;99.90;;;;;;5040043;28;20588;-77
2022/12/09 02:49:38;;;;;;;4.32;4.03;;;2.50;99.90;;;;;;5039653;28;20715;-77
2022/12/09 02:52:06;;;;;;;5.03;4.63;;;2.40;99.90;;;;;;5038935;28;20215;-75
2022/12/09 02:54:36;;;;;;;4.95;4.50;;;2.50;99.90;;;;;;5045752;28;20191;-74
2022/12/09 02:57:17;;;;;;;5.35;4.95;;;2.50;99.90;;;;;;5039001;28;20707;-74
2022/12/09 02:59:44;;;;;;;4.50;4.20;;;2.50;99.90;;;;;;5046724;28;20732;-75
2022/12/09 03:02:21;;;;;;;4.90;4.40;;;2.50;99.90;;;;;;5038920;28;20249;-74
2022/12/09 03:04:57;;;;;;;5.35;4.85;;;2.50;99.90;;;;;;5040733;28;20207;-73
2022/12/09 03:07:32;;;;;;;4.80;4.47;;;2.50;99.90;;;;;;5046993;28;20712;-75
2022/12/09 03:10:05;;;;;;;5.07;4.68;;;2.50;99.90;;;;;;5045774;28;20245;-76
2022/12/09 03:12:35;;;;;;;5.25;4.85;;;2.50;99.90;;;;;;5041288;28;20214;-75
2022/12/09 03:15:06;;;;;;;5.72;5.32;;;2.50;99.90;;;;;;5041619;28;20578;-77
2022/12/09 03:17:37;;;;;;;5.82;5.32;;;2.50;99.90;;;;;;5042231;28;20585;-76
2022/12/09 03:20:10;;;;;;;5.22;4.82;;;2.50;99.90;;;;;;5041328;28;20692;-75
2022/12/09 03:22:41;;;;;;;5.35;4.95;;;2.50;99.90;;;;;;5041127;28;20223;-76
2022/12/09 03:25:12;;;;;;;5.50;5.10;;;2.50;99.90;;;;;;5041290;28;20207;-77
2022/12/09 03:27:45;;;;;;;4.90;4.60;;;2.50;99.90;;;;;;5037663;28;20215;-77
2022/12/09 03:30:14;;;;;;;5.70;5.15;;;2.50;99.90;;;;;;5042666;28;20722;-74
2022/12/09 03:32:43;;;;;;;6.10;5.60;;;2.50;99.90;;;;;;5041825;28;20227;-75
2022/12/09 03:35:17;;;;;;;6.53;5.93;;;2.50;99.90;;;;;;5046838;28;20209;-77
2022/12/09 03:37:46;;;;;;;6.10;5.60;;;2.50;99.90;;;;;;5044898;28;20222;-77
2022/12/09 03:40:18;;;;;;;6.07;5.50;;;2.50;99.90;;;;;;5039289;28;20226;-75
2022/12/09 03:42:52;;;;;;;4.47;4.13;;;2.60;99.90;;;;;;5038797;28;20225;-75
2022/12/09 03:45:22;;;;;;;5.40;5.00;;;2.60;99.90;;;;;;5042273;28;20199;-74
2022/12/09 03:47:50;;;;;;;5.30;4.90;;;2.70;99.90;;;;;;5043465;28;20272;-75
2022/12/09 03:50:21;;;;;;;5.18;4.80;;;2.60;99.90;;;;;;5040984;28;20234;-77
2022/12/09 03:52:53;;;;;;;4.78;4.40;;;2.60;99.90;;;;;;5043426;28;20234;-75
2022/12/09 03:55:26;;;;;;;5.72;5.32;;;2.60;99.90;;;;;;5044317;28;20199;-75
2022/12/09 03:57:57;;;;;;;5.38;4.97;;;2.60;99.90;;;;;;5044648;28;20276;-74
2022/12/09 04:00:24;;;;;;;5.20;4.80;;;2.60;99.90;;;;;;5043022;28;20276;-74
2022/12/09 04:02:52;;;;;;;5.20;4.80;;;2.60;99.90;;;;;;5046515;28;20286;-76
2022/12/09 04:05:21;;;;;;;5.78;5.32;;;2.60;99.90;;;;;;5039732;28;20210;-77
2022/12/09 04:07:48;;;;;;;5.97;5.50;;;2.60;99.90;;;;;;5039422;28;20226;-76
2022/12/09 04:10:15;;;;;;;5.88;5.38;;;2.50;99.90;;;;;;5047660;28;20228;-78
2022/12/09 04:12:43;;;;;;;5.93;5.32;;;2.50;99.90;;;;;;5037085;28;20231;-77
2022/12/09 04:15:10;;;;;;;5.57;5.00;;;2.50;99.90;;;;;;5042378;28;20205;-75
2022/12/09 04:17:38;;;;;;;5.88;5.30;;;2.50;99.90;;;;;;5039089;28;20231;-76
2022/12/09 04:20:07;;;;;;;5.47;5.07;;;2.40;99.90;;;;;;5045664;28;20214;-74
2022/12/09 04:22:36;;;;;;;5.47;5.00;;;2.50;99.90;;;;;;5043658;28;20223;-76
2022/12/09 04:25:03;;;;;;;6.20;5.70;;;2.40;99.90;;;;;;5040287;28;20210;-74
2022/12/09 04:27:30;;;;;;;5.97;5.47;;;2.40;99.90;;;;;;5045067;28;20222;-75
2022/12/09 04:29:58;;;;;;;6.63;6.03;;;2.40;99.90;;;;;;5035839;28;20258;-75
2022/12/09 04:32:25;;;;;;;5.80;5.30;;;2.30;99.90;;;;;;5039300;28;20260;-74
2022/12/09 04:34:52;;;;;;;5.72;5.22;;;2.30;99.90;;;;;;5042061;28;20767;-76
2022/12/09 04:37:20;;;;;;;5.93;5.43;;;2.30;99.90;;;;;;5042887;28;20220;-78
2022/12/09 04:39:49;;;;;;;5.78;5.38;;;2.30;99.90;;;;;;5037906;28;20211;-76
2022/12/09 04:42:16;;;;;;;5.85;5.25;;;2.40;99.90;;;;;;5045609;28;20226;-76
2022/12/09 04:44:43;;;;;;;5.90;5.40;;;2.40;99.90;;;;;;5045753;28;20570;-75
2022/12/09 04:47:10;;;;;;;5.20;4.80;;;2.40;99.90;;;;;;5039056;28;20217;-74
2022/12/09 04:49:38;;;;;;;4.82;4.43;;;2.40;99.90;;;;;;5043696;28;20644;-78
2022/12/09 04:52:06;;;;;;;5.50;5.00;;;2.40;99.90;;;;;;5042308;28;20226;-76
2022/12/09 04:54:33;;;;;;;5.28;4.88;;;2.40;99.90;;;;;;5045994;28;20652;-72
2022/12/09 04:57:02;;;;;;;4.85;4.55;;;2.40;99.90;;;;;;5045136;28;20712;-76
2022/12/09 04:59:31;;;;;;;5.28;4.88;;;2.40;99.90;;;;;;5045042;28;20223;-74
2022/12/09 05:01:58;;;;;;;4.57;4.18;;;2.50;99.90;;;;;;5036422;28;20696;-73
2022/12/09 05:04:25;;;;;;;5.30;4.88;;;2.50;99.90;;;;;;5043068;28;20199;-73
2022/12/09 05:06:52;;;;;;;6.10;5.50;;;2.50;99.90;;;;;;5041880;28;20871;-75
2022/12/09 05:09:20;;;;;;;6.10;5.50;;;2.50;99.90;;;;;;5045844;28;20235;-74
2022/12/09 05:11:47;;;;;;;6.38;5.80;;;2.50;99.90;;;;;;5043845;28;20213;-76
2022/12/09 05:14:16;;;;;;;6.45;5.85;;;2.50;99.90;;;;;;5048984;28;20597;-76
2022/12/09 05:16:43;;;;;;;6.15;5.63;;;2.50;99.90;;;;;;5042489;28;20218;-75
2022/12/09 05:19:11;;;;;;;6.15;5.65;;;2.60;99.90;;;;;;5048857;28;20219;-74
2022/12/09 05:21:38;;;;;;;5.90;5.40;;;2.60;99.90;;;;;;5044489;28;20293;-74
2022/12/09 05:24:06;;;;;;;5.78;5.28;;;2.60;99.90;;;;;;5046608;28;20214;-74
2022/12/09 05:26:34;;;;;;;5.35;4.95;;;2.50;99.90;;;;;;5043294;28;20219;-72
2022/12/09 05:29:01;;;;;;;6.03;5.50;;;2.50;99.90;;;;;;5049300;28;20516;-74
2022/12/09 05:31:30;;;;;;;5.47;4.97;;;2.60;99.90;;;;;;5044845;28;20214;-73
2022/12/09 05:33:59;;;;;;;6.07;5.53;;;2.60;99.90;;;;;;5044267;28;20295;-73
2022/12/09 05:36:27;;;;;;;5.80;5.30;;;2.50;99.90;;;;;;5048030;28;20233;-73
2022/12/09 05:38:55;;;;;;;7.05;6.40;;;2.40;99.90;;;;;;5037435;28;20222;-75
2022/12/09 05:41:23;;;;;;;7.03;6.45;;;2.30;99.90;;;;;;5043793;28;20223;-73
2022/12/09 05:43:51;;;;;;;7.45;6.75;;;2.20;99.90;;;;;;5041577;28;20195;-72
2022/12/09 05:46:19;;;;;;;6.65;6.13;;;2.10;99.90;;;;;;5052446;28;20604;-74
2022/12/09 05:48:48;;;;;;;7.03;6.38;;;2.00;99.90;;;;;;5044373;28;20807;-73
2022/12/09 05:51:23;;;;;;;6.82;6.22;;;2.00;99.90;;;;;;5044002;28;20223;-73
2022/12/09 05:53:52;;;;;;;6.70;6.10;;;2.10;99.90;;;;;;5046532;28;20350;-74
2022/12/09 05:56:22;;;;;;;6.40;5.90;;;2.10;99.90;;;;;;5046455;28;20242;-74
2022/12/09 05:58:50;;;;;;;6.70;6.10;;;2.10;99.90;;;;;;5047263;28;20222;-73
2022/12/09 06:01:18;;;;;;;6.60;6.05;;;2.20;99.90;;;;;;5042882;28;20226;-73
2022/12/09 06:03:49;;;;;;;6.63;6.03;;;2.30;99.90;;;;;;5047720;28;20207;-74
2022/12/09 06:06:18;;;;;;;7.22;6.53;;;2.20;99.90;;;;;;5043013;28;20215;-74
2022/12/09 06:08:46;;;;;;;6.18;5.57;;;2.30;99.90;;;;;;5045201;28;20262;-74
2022/12/09 06:11:19;;;;;;;7.20;6.50;;;2.30;99.90;;;;;;5043408;28;20214;-74
2022/12/09 06:13:47;;;;;;;6.75;6.05;;;2.20;99.90;;;;;;5043922;28;20717;-73
2022/12/09 06:16:17;;;;;;;7.55;6.18;;;2.20;99.90;;;;;;5032679;28;20220;-76
2022/12/09 06:18:45;;;;;;;7.25;6.60;;;2.10;99.90;;;;;;5037685;28;20242;-73
2022/12/09 06:21:16;;;;;;;7.40;6.80;;;2.10;99.90;;;;;;5040848;28;20221;-73
2022/12/09 06:23:44;;;;;;;6.57;6.07;;;2.00;99.90;;;;;;5038543;28;20194;-76
2022/12/09 06:26:17;;;;;;;7.30;6.47;;;2.00;99.90;;;;;;5039091;28;20219;-75
2022/12/09 06:28:44;;;;;;;7.10;6.50;;;2.00;99.90;;;;;;5039886;28;20211;-75
2022/12/09 06:31:12;;;;;;;6.60;6.00;;;2.00;99.90;;;;;;5036209;28;20227;-74
2022/12/09 06:33:40;;;;;;;6.72;6.13;;;2.00;99.90;;;;;;5039439;28;20654;-72
2022/12/09 06:36:08;;;;;;;6.00;5.50;;;2.00;99.90;;;;;;5033717;28;20229;-73
2022/12/09 06:38:37;;;;;;;6.03;5.63;;;2.10;99.90;;;;;;5035245;28;20554;-74
2022/12/09 06:41:08;;;;;;;6.38;5.88;;;2.10;99.90;;;;;;5035986;28;20218;-76
2022/12/09 06:43:36;;;;;;;6.47;5.97;;;2.10;99.90;;;;;;5040580;28;20206;-73
2022/12/09 06:46:11;;;;;;;7.32;6.65;;;2.20;99.90;;;;;;5040984;28;20623;-74
2022/12/09 06:48:38;;;;;;;6.75;6.22;;;2.10;99.90;;;;;;5038673;28;20692;-73
2022/12/09 06:51:07;;;;;;;7.03;6.43;;;2.20;99.90;;;;;;5042765;28;20364;-74
2022/12/09 06:53:36;;;;;;;6.45;5.88;;;2.20;99.90;;;;;;5039379;28;20204;-72
2022/12/09 06:56:05;;;;;;;7.88;7.18;;;2.20;99.90;;;;;;5037798;28;20215;-72
2022/12/09 06:58:33;;;;;;;7.10;6.50;;;2.10;99.90;;;;;;5040009;28;20272;-74
2022/12/09 07:01:06;;;;;;;6.70;6.18;;;2.10;99.90;;;;;;5036518;28;20333;-74
2022/12/09 07:03:33;;;;;;;6.90;6.20;;;2.00;99.90;;;;;;5038724;28;20687;-73
2022/12/09 07:06:01;;;;;;;6.70;6.20;;;2.00;99.90;;;;;;5037667;28;20220;-75
2022/12/09 07:08:29;;;;;;;6.35;5.85;;;2.00;99.90;;;;;;5043713;28;20241;-74
2022/12/09 07:10:57;;;;;;;6.90;6.35;;;2.10;99.90;;;;;;5036825;28;20223;-74
2022/12/09 07:13:24;;;;;;;6.40;5.90;;;2.10;99.90;;;;;;5041623;28;20470;-76
2022/12/09 07:15:52;;;;;;;7.22;6.53;;;2.20;99.90;;;;;;5035555;28;20277;-73
2022/12/09 07:18:19;;;;;;;6.88;6.28;;;2.30;99.90;;;;;;5034186;28;20760;-75
2022/12/09 07:20:47;;;;;;;6.60;6.10;;;2.30;99.90;;;;;;5034674;28;20647;-74
2022/12/09 07:23:14;;;;;;;6.50;5.90;;;2.30;99.90;;;;;;5039187;28;20210;-72
2022/12/09 07:25:42;;;;;;;7.18;6.47;;;2.30;99.90;;;;;;5039355;28;20233;-73
2022/12/09 07:28:11;;;;;;;8.43;7.72;;;2.30;99.90;;;;;;5033600;28;20227;-75
2022/12/09 07:30:38;;;;;;;7.63;6.93;;;2.30;99.90;;;;;;5037835;28;20226;-73
2022/12/09 07:33:06;;;;;;;8.43;7.63;;;2.20;99.90;;;;;;5033549;28;20229;-74
2022/12/09 07:35:33;;;;;;;7.95;7.25;;;2.20;99.90;;;;;;5046964;28;20190;-74
2022/12/09 07:38:01;;;;;;;7.82;7.13;;;2.20;99.90;;;;;;5041184;28;20878;-76
2022/12/09 07:40:28;;;;;;;8.73;7.95;;;2.20;99.90;;;;;;5036606;28;20229;-72
2022/12/09 07:42:56;;;;;;;8.10;7.40;;;2.10;99.90;;;;;;5037217;28;20202;-73
2022/12/09 07:45:25;;;;;;;8.85;7.88;;;2.10;99.90;;;;;;5038538;28;20231;-73
2022/12/09 07:47:52;;;;;;;7.93;7.22;;;2.10;99.90;;;;;;5040585;28;20191;-74
2022/12/09 07:50:19;;;;;;;7.50;6.80;;;2.10;99.90;;;;;;5035879;28;20600;-74
2022/12/09 07:52:47;;;;;;;7.85;7.15;;;2.10;99.90;;;;;;5039839;28;20211;-73
2022/12/09 07:55:14;;;;;;;7.47;6.78;;;2.10;99.90;;;;;;5033427;28;20663;-75
2022/12/09 07:57:41;;;;;;;7.22;6.53;;;2.10;99.90;;;;;;5033452;28;20223;-72
2022/12/09 08:00:10;;;;;;;8.10;7.07;;;2.10;99.90;;;;;;5035437;28;20223;-76
2022/12/09 08:02:39;;;;;;;6.78;6.18;;;2.10;99.90;;;;;;5036280;28;20444;-77
2022/12/09 08:05:07;;;;;;;7.80;7.18;;;2.10;99.90;;;;;;5032441;28;20203;-78
2022/12/09 08:07:34;;;;;;;7.43;6.72;;;2.10;99.90;;;;;;5020586;28;20577;-79
2022/12/09 08:10:02;;;;;;;7.13;6.53;;;2.10;99.90;;;;;;5040802;28;20238;-73
2022/12/09 08:12:30;;;;;;;8.50;7.60;;;2.10;99.90;;;;;;5037304;28;20402;-72
2022/12/09 08:14:57;;;;;;;7.65;7.00;;;2.10;99.90;;;;;;5042147;28;20203;-72
2022/12/09 08:17:25;;;;;;;7.53;6.82;;;2.10;99.90;;;;;;5035889;28;20959;-75
2022/12/09 08:19:54;;;;;;;7.55;6.90;;;2.10;99.90;;;;;;5043171;28;20306;-74
2022/12/09 08:22:22;;;;;;;7.43;6.82;;;2.00;99.90;;;;;;5030623;28;20710;-74
2022/12/09 08:24:49;;;;;;;7.95;7.35;;;1.90;99.90;;;;;;5033973;28;20198;-75
2022/12/09 08:27:17;;;;;;;8.55;7.75;;;1.90;99.90;;;;;;5037094;28;20214;-73
2022/12/09 08:29:44;;;;;;;8.10;7.40;;;1.90;99.90;;;;;;5036190;28;20207;-73
2022/12/09 08:32:11;;;;;;;8.70;7.90;;;1.80;99.90;;;;;;5042829;28;20226;-73
2022/12/09 08:34:39;;;;;;;7.85;7.25;;;1.80;99.90;;;;;;5040549;28;20198;-74
2022/12/09 08:37:08;;;;;;;8.00;7.30;;;1.80;99.90;;;;;;5039048;28;20305;-74
2022/12/09 08:39:35;;;;;;;8.18;7.47;;;1.80;99.90;;;;;;5041363;28;21399;-73
2022/12/09 08:42:03;;;;;;;7.63;6.82;;;1.70;99.90;;;;;;5031648;28;20223;-74
2022/12/09 08:44:30;;;;;;;7.57;6.97;;;1.70;99.90;;;;;;5040298;28;20395;-72
2022/12/09 08:46:58;;;;;;;7.50;6.90;;;1.70;99.90;;;;;;5041549;28;20215;-74
2022/12/09 08:49:26;;;;;;;7.93;7.30;;;1.70;99.90;;;;;;5040721;28;20219;-73
2022/12/09 08:51:54;;;;;;;8.60;7.80;;;1.70;99.90;;;;;;5043766;28;20222;-74
2022/12/09 08:54:23;;;;;;;8.30;7.60;;;1.70;99.90;;;;;;5047797;28;20198;-75
2022/12/09 08:56:53;;;;;;;8.20;7.40;;;1.70;99.90;;;;;;5039913;28;20717;-74
2022/12/09 08:59:21;;;;;;;7.65;7.05;;;1.70;99.90;;;;;;5041414;28;20226;-74
2022/12/09 09:01:48;;;;;;;8.30;7.53;;;1.70;99.90;;;;;;5041356;28;20226;-76
2022/12/09 09:04:19;;;;;;;8.27;7.68;;;1.60;99.90;;;;;;5038237;28;20214;-73
2022/12/09 09:06:48;;;;;;;8.55;7.85;;;1.60;99.90;;;;;;5039347;28;20223;-72
2022/12/09 09:09:16;;;;;;;8.50;7.78;;;1.50;99.90;;;;;;5039156;28;20216;-73
2022/12/09 09:11:46;;;;;;;8.80;8.00;;;1.50;99.90;;;;;;5037453;28;20218;-72
2022/12/09 09:14:14;;;;;;;8.50;7.70;;;1.60;99.90;;;;;;5042242;28;20191;-73
2022/12/09 09:16:44;;;;;;;8.27;7.55;;;1.60;99.90;;;;;;5040192;28;20218;-72
2022/12/09 09:19:16;;;;;;;8.85;8.05;;;1.60;99.90;;;;;;5039083;28;20238;-74
2022/12/09 09:21:43;;;;;;;9.52;8.73;;;1.50;99.90;;;;;;5043366;28;20226;-71
2022/12/09 09:24:12;;;;;;;11.07;10.10;;;1.30;99.90;;;;;;5042289;28;20233;-72
2022/12/09 09:26:41;;;;;;;9.73;8.93;;;1.20;99.90;;;;;;5035624;28;20234;-76
2022/12/09 09:29:11;;;;;;;10.27;9.38;;;1.20;99.90;;;;;;5039689;28;20219;-73
2022/12/09 09:31:39;;;;;;;9.32;8.52;;;1.10;99.90;;;;;;5046105;28;20219;-73
2022/12/09 09:34:06;;;;;;;9.18;8.38;;;1.20;99.90;;;;;;5047925;28;20214;-73
2022/12/09 09:36:33;;;;;;;9.48;8.68;;;1.20;99.90;;;;;;5044160;28;20214;-73
2022/12/09 09:39:01;;;;;;;9.65;8.85;;;1.30;99.90;;;;;;5045405;28;20233;-73
2022/12/09 09:41:41;;;;;;;9.98;9.05;;;1.30;99.90;;;;;;5043544;28;20223;-73
2022/12/09 09:44:19;;;;;;;9.52;8.68;;;1.30;99.90;;;;;;5044198;28;20227;-74
2022/12/09 09:46:49;;;;;;;9.15;8.45;;;1.30;99.90;;;;;;5043200;28;20223;-73
2022/12/09 09:49:22;;;;;;;9.10;8.30;;;1.40;99.90;;;;;;5040493;28;20211;-73
2022/12/09 09:51:50;;;;;;;9.27;8.43;;;1.40;99.90;;;;;;5041388;28;20523;-72
2022/12/09 09:54:17;;;;;;;10.55;9.70;;;1.40;99.90;;;;;;5041566;28;20202;-72
2022/12/09 09:56:53;;;;;;;10.00;9.13;;;1.40;99.90;;;;;;5047069;28;20220;-72
2022/12/09 09:59:33;;;;;;;11.07;10.07;;;1.40;99.90;;;;;;5041849;28;20234;-72
2022/12/09 10:02:17;;;;;;;12.02;10.98;;;1.40;99.90;;;;;;5039539;28;20583;-73
2022/12/09 10:04:56;;;;;;;11.77;10.65;;;1.40;99.90;;;;;;5042627;28;20211;-73
2022/12/09 10:07:31;;;;;;;10.18;9.30;;;1.40;99.90;;;;;;5041735;28;20261;-73
2022/12/09 10:10:05;;;;;;;20.77;16.27;;;1.40;99.90;;;;;;5038985;28;20857;-72
2022/12/09 10:12:43;;;;;;;15.20;13.70;;;1.30;99.90;;;;;;5043107;28;20221;-73
2022/12/09 10:15:15;;;;;;;14.98;13.57;;;1.30;99.90;;;;;;5045043;28;20203;-73
2022/12/09 10:17:55;;;;;;;12.73;11.63;;;1.30;99.90;;;;;;5041734;28;20230;-73
2022/12/09 10:20:25;;;;;;;11.65;10.68;;;1.40;99.90;;;;;;5042782;28;20237;-73
2022/12/09 10:22:56;;;;;;;12.57;11.40;;;1.50;99.90;;;;;;5040957;28;20700;-74
2022/12/09 10:25:26;;;;;;;13.05;11.85;;;1.60;99.90;;;;;;5041356;28;20644;-73
2022/12/09 10:27:59;;;;;;;11.43;10.43;;;1.70;99.90;;;;;;5041068;28;20210;-73
2022/12/09 10:30:28;;;;;;;10.75;9.85;;;1.80;99.90;;;;;;5041861;28;20237;-75
2022/12/09 10:32:56;;;;;;;10.77;9.88;;;1.80;99.90;;;;;;5039240;28;20198;-73
2022/12/09 10:35:25;;;;;;;10.93;9.93;;;1.90;99.90;;;;;;5035064;28;20199;-75
2022/12/09 10:37:56;;;;;;;11.68;10.77;;;1.90;99.90;;;;;;5039596;28;20224;-76
2022/12/09 10:40:30;;;;;;;10.15;9.23;;;1.90;99.90;;;;;;5043168;28;20603;-75
2022/12/09 10:45:48;;;;;;;9.35;8.60;;;2.10;99.90;;;;;;5036280;28;20582;-76
2022/12/09 10:48:28;;;;;;;10.65;9.65;;;2.20;99.90;;;;;;5039243;28;20672;-78
2022/12/09 10:50:57;;;;;;;10.98;10.07;;;2.40;99.90;;;;;;5041586;28;20891;-74
2022/12/09 10:53:25;;;;;;;10.48;9.55;;;2.50;99.90;;;;;;5037713;28;20226;-73
2022/12/09 10:55:55;;;;;;;10.73;9.93;;;2.60;99.90;;;;;;5039047;28;20219;-73
2022/12/09 10:58:24;;;;;;;9.43;8.68;;;2.70;99.90;;;;;;5041212;28;20742;-76
2022/12/09 11:01:04;;;;;;;9.80;9.00;;;2.80;99.90;;;;;;5035017;28;20219;-77
2022/12/09 11:03:35;;;;;;;9.98;9.13;;;2.70;99.90;;;;;;5036215;28;20194;-78
2022/12/09 11:06:14;;;;;;;11.25;10.35;;;2.70;99.90;;;;;;5038482;28;20223;-79
2022/12/09 11:08:49;;;;;;;11.68;10.68;;;2.70;99.90;;;;;;5039642;28;20218;-74
2022/12/09 11:11:17;;;;;;;11.57;10.10;;;2.60;99.90;;;;;;5027722;28;20464;-79
2022/12/09 11:13:44;;;;;;;11.20;10.25;;;2.60;99.90;;;;;;5037031;28;20581;-76
2022/12/09 11:16:13;;;;;;;11.48;10.48;;;2.50;99.90;;;;;;5037483;28;20214;-75
2022/12/09 11:18:46;;;;;;;11.38;10.38;;;2.40;99.90;;;;;;5037270;28;20238;-75
2022/12/09 11:21:33;;;;;;;10.27;9.30;;;2.30;99.90;;;;;;5036353;28;20545;-76
2022/12/09 11:24:00;;;;;;;10.07;9.27;;;2.20;99.90;;;;;;5037456;28;20230;-73
2022/12/09 11:26:34;;;;;;;9.48;8.68;;;2.20;99.90;;;;;;5041683;28;20229;-73
2022/12/09 11:29:04;;;;;;;8.48;7.85;;;2.20;99.90;;;;;;5033668;28;20272;-73
2022/12/09 11:31:39;;;;;;;8.65;7.97;;;2.30;99.90;;;;;;5037044;28;20348;-74
2022/12/09 11:34:16;;;;;;;8.63;7.93;;;2.40;99.90;;;;;;5041952;28;20191;-76
2022/12/09 11:36:48;;;;;;;8.32;7.72;;;2.40;99.90;;;;;;5038236;28;20226;-73
2022/12/09 11:39:22;;;;;;;7.43;6.90;;;2.40;99.90;;;;;;5039881;28;20230;-77
2022/12/09 11:44:43;;;;;;;9.40;8.60;;;2.40;99.90;;;;;;5032955;28;20329;-74
2022/12/09 11:47:20;;;;;;;9.60;8.80;;;2.40;99.90;;;;;;5039314;28;20239;-75
2022/12/09 11:49:51;;;;;;;9.35;8.65;;;2.50;99.90;;;;;;5040688;28;20215;-74
2022/12/09 11:52:28;;;;;;;9.30;8.40;;;2.60;99.90;;;;;;5038058;28;20223;-74
2022/12/09 11:55:13;;;;;;;11.50;10.30;;;2.70;99.90;;;;;;5032299;28;20202;-73
2022/12/09 11:57:45;;;;;;;11.98;10.90;;;2.70;99.90;;;;;;5037890;28;20225;-72
2022/12/09 12:00:22;;;;;;;12.23;11.23;;;2.80;99.90;;;;;;5039226;28;20238;-75
2022/12/09 12:02:59;;;;;;;14.07;12.88;;;3.00;99.90;;;;;;5036235;28;20292;-73
2022/12/09 12:05:31;;;;;;;13.30;12.18;;;3.20;99.90;;;;;;5034313;28;20198;-73
2022/12/09 12:08:08;;;;;;;11.23;10.32;;;3.30;99.90;;;;;;5037549;28;20202;-76
2022/12/09 12:10:39;;;;;;;12.68;11.57;;;3.50;99.90;;;;;;5035054;28;20211;-78
2022/12/09 12:13:17;;;;;;;10.48;9.65;;;3.70;99.90;;;;;;5036767;28;20695;-72
2022/12/09 12:15:52;;;;;;;10.10;9.32;;;3.70;99.90;;;;;;5035974;28;20237;-72
2022/12/09 12:18:22;;;;;;;10.25;9.45;;;3.60;99.90;;;;;;5035226;28;20198;-75
2022/12/09 12:21:06;;;;;;;10.15;9.30;;;3.30;99.90;;;;;;5033259;28;20227;-74
2022/12/09 12:23:48;;;;;;;14.38;9.75;;;3.00;99.90;;;;;;5034651;28;20222;-74
2022/12/09 12:26:21;;;;;;;9.18;8.57;;;2.90;99.90;;;;;;5039407;28;20219;-72
2022/12/09 12:29:13;;;;;;;8.68;8.07;;;2.70;99.90;;;;;;5040749;28;20708;-72
2022/12/09 12:31:56;;;;;;;8.98;8.27;;;2.50;99.90;;;;;;5037962;28;20634;-72
2022/12/09 12:34:32;;;;;;;10.40;9.40;;;2.50;99.90;;;;;;5038237;28;20203;-73
2022/12/09 12:37:09;;;;;;;11.48;9.70;;;2.50;99.90;;;;;;5041481;28;20357;-76
2022/12/09 12:39:48;;;;;;;10.55;9.70;;;2.60;99.90;;;;;;5041492;28;20222;-75
2022/12/09 12:42:27;;;;;;;9.45;8.75;;;2.70;99.90;;;;;;5040005;28;20219;-74
2022/12/09 12:47:55;;;;;;;12.68;11.55;;;2.80;99.90;;;;;;5037279;28;20266;-74
2022/12/09 12:50:46;;;;;;;14.55;13.25;;;2.70;99.90;;;;;;5035410;28;20210;-73
2022/12/09 12:53:24;;;;;;;12.60;11.30;;;2.60;99.90;;;;;;5041775;28;20199;-74
2022/12/09 12:55:58;;;;;;;11.68;10.68;;;2.40;99.90;;;;;;5042940;28;20288;-76
2022/12/09 12:58:58;;;;;;;11.85;10.85;;;2.20;99.90;;;;;;5039627;28;20199;-73
2022/12/09 13:01:30;;;;;;;12.38;11.38;;;2.00;99.90;;;;;;5040491;28;20219;-76
2022/12/09 13:04:08;;;;;;;11.45;10.55;;;1.90;99.90;;;;;;5040797;28;20306;-73
2022/12/09 13:06:41;;;;;;;10.18;9.30;;;1.80;99.90;;;;;;5036802;28;20226;-72
2022/12/09 13:09:15;;;;;;;11.32;10.38;;;1.90;99.90;;;;;;5036544;28;20226;-73
2022/12/09 13:11:57;;;;;;;10.48;9.68;;;1.90;99.90;;;;;;5037851;28;20219;-72
2022/12/09 13:17:14;;;;;;;9.98;9.18;;;1.70;99.90;;;;;;5060432;27;20303;-75
2022/12/09 13:19:44;;;;;;;9.32;8.63;;;1.70;99.90;;;;;;5079510;28;20194;-75
2022/12/09 13:22:18;;;;;;;10.77;9.77;;;1.80;99.90;;;;;;5092005;28;20232;-74